sensor_id;sensor_type;location;lat;lon;timestamp;P1;durP1;ratioP1;P2;durP2;ratioP2
20441;SDS011;10380;52.102;20.614;2024-01-10T00:00:49;69.00;;;28.83;;
20441;SDS011;10380;52.102;20.614;2024-01-10T00:03:16;59.97;;;31.07;;
20441;SDS011;10380;52.102;20.614;2024-01-10T00:05:44;69.27;;;31.27;;
20441;SDS011;10380;52.102;20.614;2024-01-10T00:08:11;60.10;;;30.27;;
20441;SDS011;10380;52.102;20.614;2024-01-10T00:10:38;65.77;;;30.73;;
20441;SDS011;10380;52.102;20.614;2024-01-10T00:13:05;67.73;;;32.53;;
20441;SDS011;10380;52.102;20.614;2024-01-10T00:15:33;68.37;;;29.00;;
20441;SDS011;10380;52.102;20.614;2024-01-10T00:18:00;69.60;;;30.63;;
20441;SDS011;10380;52.102;20.614;2024-01-10T00:20:27;64.80;;;29.60;;
20441;SDS011;10380;52.102;20.614;2024-01-10T00:22:55;58.67;;;26.30;;
20441;SDS011;10380;52.102;20.614;2024-01-10T00:25:22;61.13;;;27.87;;
20441;SDS011;10380;52.102;20.614;2024-01-10T00:27:49;59.00;;;26.87;;
20441;SDS011;10380;52.102;20.614;2024-01-10T00:30:16;59.40;;;28.87;;
20441;SDS011;10380;52.102;20.614;2024-01-10T00:32:43;61.77;;;29.63;;
20441;SDS011;10380;52.102;20.614;2024-01-10T00:35:10;56.57;;;21.57;;
20441;SDS011;10380;52.102;20.614;2024-01-10T00:37:37;54.57;;;26.67;;
20441;SDS011;10380;52.102;20.614;2024-01-10T00:40:05;57.27;;;25.03;;
20441;SDS011;10380;52.102;20.614;2024-01-10T00:42:32;56.57;;;25.40;;
20441;SDS011;10380;52.102;20.614;2024-01-10T00:44:59;61.60;;;28.30;;
20441;SDS011;10380;52.102;20.614;2024-01-10T00:47:26;56.13;;;26.33;;
20441;SDS011;10380;52.102;20.614;2024-01-10T00:49:54;52.73;;;24.73;;
20441;SDS011;10380;52.102;20.614;2024-01-10T00:52:21;65.67;;;26.73;;
20441;SDS011;10380;52.102;20.614;2024-01-10T00:54:48;62.03;;;26.53;;
20441;SDS011;10380;52.102;20.614;2024-01-10T00:57:15;46.37;;;23.57;;
20441;SDS011;10380;52.102;20.614;2024-01-10T00:59:42;53.20;;;25.57;;
20441;SDS011;10380;52.102;20.614;2024-01-10T01:02:09;63.63;;;28.30;;
20441;SDS011;10380;52.102;20.614;2024-01-10T01:04:37;63.50;;;26.10;;
20441;SDS011;10380;52.102;20.614;2024-01-10T01:07:05;60.00;;;26.07;;
20441;SDS011;10380;52.102;20.614;2024-01-10T01:09:33;52.37;;;22.73;;
20441;SDS011;10380;52.102;20.614;2024-01-10T01:12:00;68.10;;;27.00;;
20441;SDS011;10380;52.102;20.614;2024-01-10T01:14:27;69.87;;;27.00;;
20441;SDS011;10380;52.102;20.614;2024-01-10T01:16:54;55.60;;;23.13;;
20441;SDS011;10380;52.102;20.614;2024-01-10T01:19:21;62.63;;;28.40;;
20441;SDS011;10380;52.102;20.614;2024-01-10T01:21:48;55.20;;;27.97;;
20441;SDS011;10380;52.102;20.614;2024-01-10T01:24:15;62.97;;;28.50;;
20441;SDS011;10380;52.102;20.614;2024-01-10T01:26:42;67.93;;;29.17;;
20441;SDS011;10380;52.102;20.614;2024-01-10T01:29:10;68.83;;;28.77;;
20441;SDS011;10380;52.102;20.614;2024-01-10T01:31:37;58.73;;;29.13;;
20441;SDS011;10380;52.102;20.614;2024-01-10T01:34:04;61.27;;;28.13;;
20441;SDS011;10380;52.102;20.614;2024-01-10T01:36:33;64.17;;;29.70;;
20441;SDS011;10380;52.102;20.614;2024-01-10T01:39:00;60.13;;;27.87;;
20441;SDS011;10380;52.102;20.614;2024-01-10T01:41:28;62.37;;;28.60;;
20441;SDS011;10380;52.102;20.614;2024-01-10T01:43:55;56.10;;;25.20;;
20441;SDS011;10380;52.102;20.614;2024-01-10T01:46:22;55.97;;;26.93;;
20441;SDS011;10380;52.102;20.614;2024-01-10T01:48:50;50.43;;;25.23;;
20441;SDS011;10380;52.102;20.614;2024-01-10T01:51:20;59.67;;;29.40;;
20441;SDS011;10380;52.102;20.614;2024-01-10T01:53:48;62.20;;;30.17;;
20441;SDS011;10380;52.102;20.614;2024-01-10T01:56:16;61.53;;;28.00;;
20441;SDS011;10380;52.102;20.614;2024-01-10T01:58:45;60.87;;;27.27;;
20441;SDS011;10380;52.102;20.614;2024-01-10T02:01:12;68.97;;;28.93;;
20441;SDS011;10380;52.102;20.614;2024-01-10T02:03:40;69.67;;;30.13;;
20441;SDS011;10380;52.102;20.614;2024-01-10T02:06:07;51.23;;;26.40;;
20441;SDS011;10380;52.102;20.614;2024-01-10T02:08:35;60.67;;;25.93;;
20441;SDS011;10380;52.102;20.614;2024-01-10T02:11:02;62.90;;;29.43;;
20441;SDS011;10380;52.102;20.614;2024-01-10T02:13:33;71.93;;;29.77;;
20441;SDS011;10380;52.102;20.614;2024-01-10T02:16:00;59.73;;;30.70;;
20441;SDS011;10380;52.102;20.614;2024-01-10T02:18:29;41.90;;;20.77;;
20441;SDS011;10380;52.102;20.614;2024-01-10T02:20:57;65.37;;;28.67;;
20441;SDS011;10380;52.102;20.614;2024-01-10T02:23:25;61.27;;;29.07;;
20441;SDS011;10380;52.102;20.614;2024-01-10T02:25:52;62.23;;;29.90;;
20441;SDS011;10380;52.102;20.614;2024-01-10T02:28:19;68.00;;;25.90;;
20441;SDS011;10380;52.102;20.614;2024-01-10T02:30:46;59.80;;;29.90;;
20441;SDS011;10380;52.102;20.614;2024-01-10T02:33:13;77.93;;;28.93;;
20441;SDS011;10380;52.102;20.614;2024-01-10T02:35:41;62.47;;;29.73;;
20441;SDS011;10380;52.102;20.614;2024-01-10T02:38:09;57.93;;;26.87;;
20441;SDS011;10380;52.102;20.614;2024-01-10T02:40:36;64.50;;;26.70;;
20441;SDS011;10380;52.102;20.614;2024-01-10T02:43:03;39.90;;;21.77;;
20441;SDS011;10380;52.102;20.614;2024-01-10T02:45:30;65.00;;;28.30;;
20441;SDS011;10380;52.102;20.614;2024-01-10T02:47:58;59.80;;;27.03;;
20441;SDS011;10380;52.102;20.614;2024-01-10T02:50:25;62.50;;;26.47;;
20441;SDS011;10380;52.102;20.614;2024-01-10T02:52:52;59.93;;;25.70;;
20441;SDS011;10380;52.102;20.614;2024-01-10T02:55:19;45.37;;;22.47;;
20441;SDS011;10380;52.102;20.614;2024-01-10T02:57:47;54.30;;;24.57;;
20441;SDS011;10380;52.102;20.614;2024-01-10T03:00:13;64.60;;;25.17;;
20441;SDS011;10380;52.102;20.614;2024-01-10T03:02:41;47.50;;;22.63;;
20441;SDS011;10380;52.102;20.614;2024-01-10T03:05:08;40.70;;;19.33;;
20441;SDS011;10380;52.102;20.614;2024-01-10T03:07:36;55.60;;;25.70;;
20441;SDS011;10380;52.102;20.614;2024-01-10T03:10:03;52.03;;;24.43;;
20441;SDS011;10380;52.102;20.614;2024-01-10T03:12:30;46.43;;;23.90;;
20441;SDS011;10380;52.102;20.614;2024-01-10T03:14:57;55.03;;;23.17;;
20441;SDS011;10380;52.102;20.614;2024-01-10T03:17:26;52.77;;;24.03;;
20441;SDS011;10380;52.102;20.614;2024-01-10T03:19:53;54.30;;;22.57;;
20441;SDS011;10380;52.102;20.614;2024-01-10T03:22:20;49.60;;;21.17;;
20441;SDS011;10380;52.102;20.614;2024-01-10T03:24:47;47.07;;;22.63;;
20441;SDS011;10380;52.102;20.614;2024-01-10T03:27:14;48.90;;;22.97;;
20441;SDS011;10380;52.102;20.614;2024-01-10T03:29:41;48.80;;;19.90;;
20441;SDS011;10380;52.102;20.614;2024-01-10T03:32:08;50.07;;;21.33;;
20441;SDS011;10380;52.102;20.614;2024-01-10T03:34:35;39.80;;;18.33;;
20441;SDS011;10380;52.102;20.614;2024-01-10T03:37:02;41.03;;;19.23;;
20441;SDS011;10380;52.102;20.614;2024-01-10T03:39:30;42.57;;;19.67;;
20441;SDS011;10380;52.102;20.614;2024-01-10T03:41:57;37.77;;;19.73;;
20441;SDS011;10380;52.102;20.614;2024-01-10T03:44:25;41.77;;;21.10;;
20441;SDS011;10380;52.102;20.614;2024-01-10T03:46:54;47.20;;;19.73;;
20441;SDS011;10380;52.102;20.614;2024-01-10T03:49:21;48.97;;;23.60;;
20441;SDS011;10380;52.102;20.614;2024-01-10T03:51:48;53.83;;;25.23;;
20441;SDS011;10380;52.102;20.614;2024-01-10T03:54:15;56.00;;;25.40;;
20441;SDS011;10380;52.102;20.614;2024-01-10T03:56:42;48.33;;;23.50;;
20441;SDS011;10380;52.102;20.614;2024-01-10T03:59:09;51.90;;;25.60;;
20441;SDS011;10380;52.102;20.614;2024-01-10T04:01:38;56.57;;;26.07;;
20441;SDS011;10380;52.102;20.614;2024-01-10T04:04:05;56.27;;;25.23;;
20441;SDS011;10380;52.102;20.614;2024-01-10T04:06:32;51.63;;;23.20;;
20441;SDS011;10380;52.102;20.614;2024-01-10T04:09:01;51.10;;;24.00;;
20441;SDS011;10380;52.102;20.614;2024-01-10T04:11:29;53.87;;;26.60;;
20441;SDS011;10380;52.102;20.614;2024-01-10T04:13:56;56.93;;;25.13;;
20441;SDS011;10380;52.102;20.614;2024-01-10T04:16:23;58.70;;;28.03;;
20441;SDS011;10380;52.102;20.614;2024-01-10T04:18:50;62.03;;;26.27;;
20441;SDS011;10380;52.102;20.614;2024-01-10T04:21:17;65.63;;;29.13;;
20441;SDS011;10380;52.102;20.614;2024-01-10T04:23:44;84.00;;;35.17;;
20441;SDS011;10380;52.102;20.614;2024-01-10T04:26:11;73.33;;;29.33;;
20441;SDS011;10380;52.102;20.614;2024-01-10T04:28:38;67.13;;;29.60;;
20441;SDS011;10380;52.102;20.614;2024-01-10T04:31:07;75.27;;;33.37;;
20441;SDS011;10380;52.102;20.614;2024-01-10T04:33:35;72.07;;;33.00;;
20441;SDS011;10380;52.102;20.614;2024-01-10T04:36:03;90.33;;;33.73;;
20441;SDS011;10380;52.102;20.614;2024-01-10T04:38:31;74.23;;;30.17;;
20441;SDS011;10380;52.102;20.614;2024-01-10T04:40:58;84.33;;;31.77;;
20441;SDS011;10380;52.102;20.614;2024-01-10T04:43:25;73.57;;;29.80;;
20441;SDS011;10380;52.102;20.614;2024-01-10T04:45:52;82.73;;;34.20;;
20441;SDS011;10380;52.102;20.614;2024-01-10T04:48:19;68.87;;;29.43;;
20441;SDS011;10380;52.102;20.614;2024-01-10T04:50:46;81.63;;;34.53;;
20441;SDS011;10380;52.102;20.614;2024-01-10T04:53:13;81.70;;;34.20;;
20441;SDS011;10380;52.102;20.614;2024-01-10T04:55:40;92.93;;;37.43;;
20441;SDS011;10380;52.102;20.614;2024-01-10T04:58:08;74.33;;;31.60;;
20441;SDS011;10380;52.102;20.614;2024-01-10T05:00:34;78.90;;;32.53;;
20441;SDS011;10380;52.102;20.614;2024-01-10T05:03:02;75.43;;;32.37;;
20441;SDS011;10380;52.102;20.614;2024-01-10T05:05:29;65.00;;;28.27;;
20441;SDS011;10380;52.102;20.614;2024-01-10T05:07:56;60.97;;;29.20;;
20441;SDS011;10380;52.102;20.614;2024-01-10T05:10:23;62.93;;;29.37;;
20441;SDS011;10380;52.102;20.614;2024-01-10T05:12:50;66.33;;;30.07;;
20441;SDS011;10380;52.102;20.614;2024-01-10T05:15:17;82.13;;;32.80;;
20441;SDS011;10380;52.102;20.614;2024-01-10T05:17:44;85.40;;;36.30;;
20441;SDS011;10380;52.102;20.614;2024-01-10T05:20:12;74.27;;;33.40;;
20441;SDS011;10380;52.102;20.614;2024-01-10T05:22:40;66.00;;;29.50;;
20441;SDS011;10380;52.102;20.614;2024-01-10T05:25:07;64.83;;;30.63;;
20441;SDS011;10380;52.102;20.614;2024-01-10T05:27:34;73.00;;;33.70;;
20441;SDS011;10380;52.102;20.614;2024-01-10T05:30:02;68.33;;;28.87;;
20441;SDS011;10380;52.102;20.614;2024-01-10T05:32:29;65.73;;;28.47;;
20441;SDS011;10380;52.102;20.614;2024-01-10T05:34:56;61.67;;;27.83;;
20441;SDS011;10380;52.102;20.614;2024-01-10T05:37:23;65.07;;;29.20;;
20441;SDS011;10380;52.102;20.614;2024-01-10T05:39:50;58.70;;;29.83;;
20441;SDS011;10380;52.102;20.614;2024-01-10T05:42:17;56.10;;;28.33;;
20441;SDS011;10380;52.102;20.614;2024-01-10T05:44:45;53.53;;;25.47;;
20441;SDS011;10380;52.102;20.614;2024-01-10T05:47:13;63.37;;;26.87;;
20441;SDS011;10380;52.102;20.614;2024-01-10T05:49:41;56.90;;;25.70;;
20441;SDS011;10380;52.102;20.614;2024-01-10T05:52:09;48.20;;;21.93;;
20441;SDS011;10380;52.102;20.614;2024-01-10T05:54:36;62.63;;;26.53;;
20441;SDS011;10380;52.102;20.614;2024-01-10T05:57:03;65.57;;;28.77;;
20441;SDS011;10380;52.102;20.614;2024-01-10T05:59:30;55.50;;;24.83;;
20441;SDS011;10380;52.102;20.614;2024-01-10T06:01:57;63.87;;;26.40;;
20441;SDS011;10380;52.102;20.614;2024-01-10T06:04:25;79.67;;;29.73;;
20441;SDS011;10380;52.102;20.614;2024-01-10T06:06:54;56.07;;;25.93;;
20441;SDS011;10380;52.102;20.614;2024-01-10T06:09:21;60.77;;;27.77;;
20441;SDS011;10380;52.102;20.614;2024-01-10T06:11:49;61.77;;;26.00;;
20441;SDS011;10380;52.102;20.614;2024-01-10T06:14:16;53.57;;;25.50;;
20441;SDS011;10380;52.102;20.614;2024-01-10T06:16:44;49.83;;;22.90;;
20441;SDS011;10380;52.102;20.614;2024-01-10T06:19:11;59.40;;;27.83;;
20441;SDS011;10380;52.102;20.614;2024-01-10T06:21:39;57.70;;;26.07;;
20441;SDS011;10380;52.102;20.614;2024-01-10T06:24:06;53.93;;;23.63;;
20441;SDS011;10380;52.102;20.614;2024-01-10T06:26:34;55.03;;;25.03;;
20441;SDS011;10380;52.102;20.614;2024-01-10T06:29:01;57.37;;;24.50;;
20441;SDS011;10380;52.102;20.614;2024-01-10T06:31:28;45.87;;;23.50;;
20441;SDS011;10380;52.102;20.614;2024-01-10T06:33:55;51.67;;;23.67;;
20441;SDS011;10380;52.102;20.614;2024-01-10T06:36:22;53.40;;;24.63;;
20441;SDS011;10380;52.102;20.614;2024-01-10T06:38:49;47.80;;;23.17;;
20441;SDS011;10380;52.102;20.614;2024-01-10T06:41:16;50.50;;;24.87;;
20441;SDS011;10380;52.102;20.614;2024-01-10T06:43:43;56.50;;;25.70;;
20441;SDS011;10380;52.102;20.614;2024-01-10T06:46:10;43.23;;;21.50;;
20441;SDS011;10380;52.102;20.614;2024-01-10T06:48:38;53.53;;;22.80;;
20441;SDS011;10380;52.102;20.614;2024-01-10T06:51:17;44.47;;;24.30;;
20441;SDS011;10380;52.102;20.614;2024-01-10T06:53:44;43.83;;;20.77;;
20441;SDS011;10380;52.102;20.614;2024-01-10T06:56:12;47.93;;;23.17;;
20441;SDS011;10380;52.102;20.614;2024-01-10T06:58:39;43.00;;;21.27;;
20441;SDS011;10380;52.102;20.614;2024-01-10T07:01:12;49.47;;;21.17;;
20441;SDS011;10380;52.102;20.614;2024-01-10T07:03:41;45.83;;;21.97;;
20441;SDS011;10380;52.102;20.614;2024-01-10T07:06:08;44.60;;;20.03;;
20441;SDS011;10380;52.102;20.614;2024-01-10T07:08:35;43.40;;;21.17;;
20441;SDS011;10380;52.102;20.614;2024-01-10T07:11:02;38.00;;;18.73;;
20441;SDS011;10380;52.102;20.614;2024-01-10T07:13:29;46.57;;;21.07;;
20441;SDS011;10380;52.102;20.614;2024-01-10T07:15:57;46.17;;;19.87;;
20441;SDS011;10380;52.102;20.614;2024-01-10T07:18:29;49.47;;;20.30;;
20441;SDS011;10380;52.102;20.614;2024-01-10T07:20:59;26.30;;;13.53;;
20441;SDS011;10380;52.102;20.614;2024-01-10T07:23:27;43.73;;;20.63;;
20441;SDS011;10380;52.102;20.614;2024-01-10T07:25:54;39.07;;;19.63;;
20441;SDS011;10380;52.102;20.614;2024-01-10T07:28:21;49.27;;;20.77;;
20441;SDS011;10380;52.102;20.614;2024-01-10T07:30:47;38.63;;;19.27;;
20441;SDS011;10380;52.102;20.614;2024-01-10T07:33:14;42.07;;;19.33;;
20441;SDS011;10380;52.102;20.614;2024-01-10T07:35:42;41.03;;;18.57;;
20441;SDS011;10380;52.102;20.614;2024-01-10T07:38:09;39.10;;;18.30;;
20441;SDS011;10380;52.102;20.614;2024-01-10T07:40:36;36.30;;;14.93;;
20441;SDS011;10380;52.102;20.614;2024-01-10T07:43:03;37.97;;;18.77;;
20441;SDS011;10380;52.102;20.614;2024-01-10T07:45:31;33.57;;;18.23;;
20441;SDS011;10380;52.102;20.614;2024-01-10T07:47:58;41.17;;;19.70;;
20441;SDS011;10380;52.102;20.614;2024-01-10T07:50:25;31.13;;;15.27;;
20441;SDS011;10380;52.102;20.614;2024-01-10T07:52:55;43.33;;;19.07;;
20441;SDS011;10380;52.102;20.614;2024-01-10T07:55:22;36.97;;;19.97;;
20441;SDS011;10380;52.102;20.614;2024-01-10T07:57:49;41.70;;;19.47;;
20441;SDS011;10380;52.102;20.614;2024-01-10T08:00:16;43.00;;;18.73;;
20441;SDS011;10380;52.102;20.614;2024-01-10T08:02:43;43.93;;;19.97;;
20441;SDS011;10380;52.102;20.614;2024-01-10T08:05:10;40.00;;;19.73;;
20441;SDS011;10380;52.102;20.614;2024-01-10T08:07:39;42.17;;;19.07;;
20441;SDS011;10380;52.102;20.614;2024-01-10T08:10:06;41.20;;;19.10;;
20441;SDS011;10380;52.102;20.614;2024-01-10T08:12:39;51.50;;;21.40;;
20441;SDS011;10380;52.102;20.614;2024-01-10T08:15:07;45.00;;;17.47;;
20441;SDS011;10380;52.102;20.614;2024-01-10T08:17:34;39.60;;;18.63;;
20441;SDS011;10380;52.102;20.614;2024-01-10T08:20:05;51.97;;;21.03;;
20441;SDS011;10380;52.102;20.614;2024-01-10T08:22:35;45.60;;;22.47;;
20441;SDS011;10380;52.102;20.614;2024-01-10T08:25:02;42.93;;;20.07;;
20441;SDS011;10380;52.102;20.614;2024-01-10T08:27:29;47.53;;;22.70;;
20441;SDS011;10380;52.102;20.614;2024-01-10T08:29:56;39.40;;;18.73;;
20441;SDS011;10380;52.102;20.614;2024-01-10T08:32:23;56.63;;;23.80;;
20441;SDS011;10380;52.102;20.614;2024-01-10T08:34:51;41.23;;;20.93;;
20441;SDS011;10380;52.102;20.614;2024-01-10T08:37:18;45.87;;;23.00;;
20441;SDS011;10380;52.102;20.614;2024-01-10T08:39:45;40.60;;;17.83;;
20441;SDS011;10380;52.102;20.614;2024-01-10T08:42:12;56.70;;;22.90;;
20441;SDS011;10380;52.102;20.614;2024-01-10T08:44:39;46.50;;;21.80;;
20441;SDS011;10380;52.102;20.614;2024-01-10T08:47:06;49.60;;;22.77;;
20441;SDS011;10380;52.102;20.614;2024-01-10T08:49:33;48.03;;;24.13;;
20441;SDS011;10380;52.102;20.614;2024-01-10T08:52:00;44.47;;;21.23;;
20441;SDS011;10380;52.102;20.614;2024-01-10T08:54:27;51.77;;;23.93;;
20441;SDS011;10380;52.102;20.614;2024-01-10T08:56:55;49.67;;;24.30;;
20441;SDS011;10380;52.102;20.614;2024-01-10T08:59:22;51.07;;;22.80;;
20441;SDS011;10380;52.102;20.614;2024-01-10T09:01:50;55.40;;;25.40;;
20441;SDS011;10380;52.102;20.614;2024-01-10T09:04:18;54.83;;;24.60;;
20441;SDS011;10380;52.102;20.614;2024-01-10T09:06:46;51.20;;;23.37;;
20441;SDS011;10380;52.102;20.614;2024-01-10T09:09:13;54.03;;;26.97;;
20441;SDS011;10380;52.102;20.614;2024-01-10T09:11:41;61.50;;;27.13;;
20441;SDS011;10380;52.102;20.614;2024-01-10T09:14:11;53.03;;;27.10;;
20441;SDS011;10380;52.102;20.614;2024-01-10T09:16:38;57.40;;;26.93;;
20441;SDS011;10380;52.102;20.614;2024-01-10T09:19:05;48.40;;;25.67;;
20441;SDS011;10380;52.102;20.614;2024-01-10T09:21:37;59.83;;;27.90;;
20441;SDS011;10380;52.102;20.614;2024-01-10T09:24:04;56.10;;;26.80;;
20441;SDS011;10380;52.102;20.614;2024-01-10T09:26:51;64.20;;;28.70;;
20441;SDS011;10380;52.102;20.614;2024-01-10T09:29:20;57.80;;;26.57;;
20441;SDS011;10380;52.102;20.614;2024-01-10T09:31:47;48.47;;;26.03;;
20441;SDS011;10380;52.102;20.614;2024-01-10T09:34:18;47.77;;;21.63;;
20441;SDS011;10380;52.102;20.614;2024-01-10T09:36:46;52.33;;;27.00;;
20441;SDS011;10380;52.102;20.614;2024-01-10T09:39:14;55.00;;;27.80;;
20441;SDS011;10380;52.102;20.614;2024-01-10T09:41:52;38.13;;;20.37;;
20441;SDS011;10380;52.102;20.614;2024-01-10T09:44:20;37.67;;;19.40;;
20441;SDS011;10380;52.102;20.614;2024-01-10T09:46:52;42.23;;;21.93;;
20441;SDS011;10380;52.102;20.614;2024-01-10T09:49:21;56.43;;;26.53;;
20441;SDS011;10380;52.102;20.614;2024-01-10T09:51:50;42.33;;;20.90;;
20441;SDS011;10380;52.102;20.614;2024-01-10T09:54:19;40.90;;;20.77;;
20441;SDS011;10380;52.102;20.614;2024-01-10T09:56:50;49.53;;;22.73;;
20441;SDS011;10380;52.102;20.614;2024-01-10T09:59:18;41.03;;;18.00;;
20441;SDS011;10380;52.102;20.614;2024-01-10T10:01:46;33.97;;;15.00;;
20441;SDS011;10380;52.102;20.614;2024-01-10T10:04:13;41.70;;;21.50;;
20441;SDS011;10380;52.102;20.614;2024-01-10T10:06:44;43.30;;;21.33;;
20441;SDS011;10380;52.102;20.614;2024-01-10T10:09:12;46.77;;;21.93;;
20441;SDS011;10380;52.102;20.614;2024-01-10T10:11:40;60.50;;;26.43;;
20441;SDS011;10380;52.102;20.614;2024-01-10T10:14:18;47.33;;;20.30;;
20441;SDS011;10380;52.102;20.614;2024-01-10T10:16:45;27.77;;;14.70;;
20441;SDS011;10380;52.102;20.614;2024-01-10T10:19:13;28.60;;;13.33;;
20441;SDS011;10380;52.102;20.614;2024-01-10T10:22:07;57.13;;;26.13;;
20441;SDS011;10380;52.102;20.614;2024-01-10T10:24:35;43.17;;;19.80;;
20441;SDS011;10380;52.102;20.614;2024-01-10T10:27:07;30.73;;;17.70;;
20441;SDS011;10380;52.102;20.614;2024-01-10T10:29:38;38.77;;;16.70;;
20441;SDS011;10380;52.102;20.614;2024-01-10T10:32:06;46.03;;;20.30;;
20441;SDS011;10380;52.102;20.614;2024-01-10T10:34:35;45.33;;;21.87;;
20441;SDS011;10380;52.102;20.614;2024-01-10T10:37:02;27.80;;;15.33;;
20441;SDS011;10380;52.102;20.614;2024-01-10T10:39:29;48.90;;;24.10;;
20441;SDS011;10380;52.102;20.614;2024-01-10T10:41:56;54.50;;;23.97;;
20441;SDS011;10380;52.102;20.614;2024-01-10T10:44:24;41.13;;;21.20;;
20441;SDS011;10380;52.102;20.614;2024-01-10T10:46:55;58.93;;;26.23;;
20441;SDS011;10380;52.102;20.614;2024-01-10T10:49:39;57.30;;;26.80;;
20441;SDS011;10380;52.102;20.614;2024-01-10T10:52:19;59.33;;;28.20;;
20441;SDS011;10380;52.102;20.614;2024-01-10T10:54:48;55.57;;;27.17;;
20441;SDS011;10380;52.102;20.614;2024-01-10T10:57:17;59.13;;;26.17;;
20441;SDS011;10380;52.102;20.614;2024-01-10T10:59:47;39.43;;;22.40;;
20441;SDS011;10380;52.102;20.614;2024-01-10T11:02:18;49.40;;;25.87;;
20441;SDS011;10380;52.102;20.614;2024-01-10T11:04:57;61.20;;;26.20;;
20441;SDS011;10380;52.102;20.614;2024-01-10T11:07:26;40.27;;;20.80;;
20441;SDS011;10380;52.102;20.614;2024-01-10T11:09:54;55.87;;;26.23;;
20441;SDS011;10380;52.102;20.614;2024-01-10T11:15:14;58.40;;;26.57;;
20441;SDS011;10380;52.102;20.614;2024-01-10T11:20:30;58.43;;;26.33;;
20441;SDS011;10380;52.102;20.614;2024-01-10T11:25:57;30.57;;;17.70;;
20441;SDS011;10380;52.102;20.614;2024-01-10T11:28:25;62.60;;;27.23;;
20441;SDS011;10380;52.102;20.614;2024-01-10T11:30:55;55.90;;;27.60;;
20441;SDS011;10380;52.102;20.614;2024-01-10T11:33:24;60.63;;;29.23;;
20441;SDS011;10380;52.102;20.614;2024-01-10T11:38:53;62.13;;;26.37;;
20441;SDS011;10380;52.102;20.614;2024-01-10T11:46:42;39.27;;;20.27;;
20441;SDS011;10380;52.102;20.614;2024-01-10T11:49:15;32.23;;;16.77;;
20441;SDS011;10380;52.102;20.614;2024-01-10T11:51:45;48.03;;;24.53;;
20441;SDS011;10380;52.102;20.614;2024-01-10T11:59:51;43.40;;;18.93;;
20441;SDS011;10380;52.102;20.614;2024-01-10T12:02:24;52.63;;;25.67;;
20441;SDS011;10380;52.102;20.614;2024-01-10T12:04:53;47.17;;;21.30;;
20441;SDS011;10380;52.102;20.614;2024-01-10T12:07:22;46.13;;;23.83;;
20441;SDS011;10380;52.102;20.614;2024-01-10T12:09:50;51.53;;;23.53;;
20441;SDS011;10380;52.102;20.614;2024-01-10T12:12:17;52.53;;;24.47;;
20441;SDS011;10380;52.102;20.614;2024-01-10T12:14:45;49.47;;;24.20;;
20441;SDS011;10380;52.102;20.614;2024-01-10T12:17:14;30.87;;;14.43;;
20441;SDS011;10380;52.102;20.614;2024-01-10T12:19:43;31.60;;;14.70;;
20441;SDS011;10380;52.102;20.614;2024-01-10T12:22:13;47.43;;;23.63;;
20441;SDS011;10380;52.102;20.614;2024-01-10T12:24:42;44.70;;;22.43;;
20441;SDS011;10380;52.102;20.614;2024-01-10T12:27:12;50.17;;;24.23;;
20441;SDS011;10380;52.102;20.614;2024-01-10T12:29:38;46.10;;;22.30;;
20441;SDS011;10380;52.102;20.614;2024-01-10T12:32:07;44.33;;;22.73;;
20441;SDS011;10380;52.102;20.614;2024-01-10T12:34:38;40.37;;;19.23;;
20441;SDS011;10380;52.102;20.614;2024-01-10T12:37:06;35.77;;;15.80;;
20441;SDS011;10380;52.102;20.614;2024-01-10T12:39:33;42.80;;;20.70;;
20441;SDS011;10380;52.102;20.614;2024-01-10T12:42:01;29.37;;;14.10;;
20441;SDS011;10380;52.102;20.614;2024-01-10T12:44:31;37.93;;;16.63;;
20441;SDS011;10380;52.102;20.614;2024-01-10T12:46:58;30.23;;;14.67;;
20441;SDS011;10380;52.102;20.614;2024-01-10T12:49:26;47.53;;;22.07;;
20441;SDS011;10380;52.102;20.614;2024-01-10T12:51:54;46.67;;;17.60;;
20441;SDS011;10380;52.102;20.614;2024-01-10T12:54:21;43.57;;;21.90;;
20441;SDS011;10380;52.102;20.614;2024-01-10T12:56:48;49.97;;;22.43;;
20441;SDS011;10380;52.102;20.614;2024-01-10T12:59:17;37.87;;;20.37;;
20441;SDS011;10380;52.102;20.614;2024-01-10T13:01:45;50.87;;;24.83;;
20441;SDS011;10380;52.102;20.614;2024-01-10T13:04:12;33.23;;;17.27;;
20441;SDS011;10380;52.102;20.614;2024-01-10T13:06:39;43.90;;;22.37;;
20441;SDS011;10380;52.102;20.614;2024-01-10T13:09:07;46.00;;;22.67;;
20441;SDS011;10380;52.102;20.614;2024-01-10T13:11:36;39.90;;;17.50;;
20441;SDS011;10380;52.102;20.614;2024-01-10T13:14:03;27.27;;;15.47;;
20441;SDS011;10380;52.102;20.614;2024-01-10T13:16:30;48.40;;;21.27;;
20441;SDS011;10380;52.102;20.614;2024-01-10T13:19:05;58.07;;;27.13;;
20441;SDS011;10380;52.102;20.614;2024-01-10T13:21:31;62.93;;;26.07;;
20441;SDS011;10380;52.102;20.614;2024-01-10T13:23:59;40.53;;;22.00;;
20441;SDS011;10380;52.102;20.614;2024-01-10T13:26:26;35.60;;;20.00;;
20441;SDS011;10380;52.102;20.614;2024-01-10T13:28:53;43.77;;;21.10;;
20441;SDS011;10380;52.102;20.614;2024-01-10T13:31:20;42.07;;;18.43;;
20441;SDS011;10380;52.102;20.614;2024-01-10T13:33:47;41.77;;;21.13;;
20441;SDS011;10380;52.102;20.614;2024-01-10T13:36:14;50.57;;;20.93;;
20441;SDS011;10380;52.102;20.614;2024-01-10T13:38:41;46.03;;;22.97;;
20441;SDS011;10380;52.102;20.614;2024-01-10T13:41:08;50.70;;;22.83;;
20441;SDS011;10380;52.102;20.614;2024-01-10T13:43:35;53.77;;;24.93;;
20441;SDS011;10380;52.102;20.614;2024-01-10T13:46:02;57.03;;;26.23;;
20441;SDS011;10380;52.102;20.614;2024-01-10T13:48:35;53.00;;;25.53;;
20441;SDS011;10380;52.102;20.614;2024-01-10T13:51:02;55.87;;;26.60;;
20441;SDS011;10380;52.102;20.614;2024-01-10T13:53:29;44.00;;;21.33;;
20441;SDS011;10380;52.102;20.614;2024-01-10T13:55:56;59.03;;;27.60;;
20441;SDS011;10380;52.102;20.614;2024-01-10T13:58:23;53.77;;;27.00;;
20441;SDS011;10380;52.102;20.614;2024-01-10T14:00:51;64.50;;;22.40;;
20441;SDS011;10380;52.102;20.614;2024-01-10T14:03:18;52.03;;;23.87;;
20441;SDS011;10380;52.102;20.614;2024-01-10T14:05:45;76.77;;;33.90;;
20441;SDS011;10380;52.102;20.614;2024-01-10T14:08:12;81.57;;;36.03;;
20441;SDS011;10380;52.102;20.614;2024-01-10T14:10:39;61.23;;;27.17;;
20441;SDS011;10380;52.102;20.614;2024-01-10T14:13:08;69.20;;;31.10;;
20441;SDS011;10380;52.102;20.614;2024-01-10T14:15:36;64.00;;;30.70;;
20441;SDS011;10380;52.102;20.614;2024-01-10T14:18:03;60.50;;;31.37;;
20441;SDS011;10380;52.102;20.614;2024-01-10T14:20:31;59.07;;;28.00;;
20441;SDS011;10380;52.102;20.614;2024-01-10T14:22:59;54.63;;;27.37;;
20441;SDS011;10380;52.102;20.614;2024-01-10T14:25:27;60.73;;;28.93;;
20441;SDS011;10380;52.102;20.614;2024-01-10T14:27:55;68.57;;;29.53;;
20441;SDS011;10380;52.102;20.614;2024-01-10T14:30:22;68.37;;;30.37;;
20441;SDS011;10380;52.102;20.614;2024-01-10T14:32:51;58.57;;;28.27;;
20441;SDS011;10380;52.102;20.614;2024-01-10T14:35:19;58.67;;;27.47;;